Time;durP1;ratioP1;P1;durP2;ratioP2;P2;SDS_P1;SDS_P2;PMS_P1;PMS_P2;Temp;Humidity;BMP_temperature;BMP_pressure;BME280_temperature;BME280_humidity;BME280_pressure;Samples;Min_cycle;Max_cycle;Signal;HPM_P1;HPM_P2
2022/11/09 00:00:04;;;;;;;;;;;;;;;12.46;94.68;100402.66;5015534;28;20096;-75
2022/11/09 00:02:29;;;;;;;;;;;;;;;12.46;95.17;100411.41;5015016;28;20152;-75
2022/11/09 00:04:54;;;;;;;;;;;;;;;12.46;95.23;100410.53;5015519;28;19992;-75
2022/11/09 00:07:20;;;;;;;;;;;;;;;12.45;94.31;100416.72;5015181;28;20136;-75
2022/11/09 00:09:45;;;;;;;;;;;;;;;12.43;93.60;100408.94;5016131;28;19917;-75
2022/11/09 00:12:10;;;;;;;;;;;;;;;12.43;93.63;100411.56;5015766;28;19914;-75
2022/11/09 00:14:36;;;;;;;;;;;;;;;12.43;94.22;100403.69;5016361;28;19913;-75
2022/11/09 00:17:01;;;;;;;;;;;;;;;12.43;94.40;100406.31;5016042;28;19925;-75
2022/11/09 00:19:26;;;;;;;;;;;;;;;12.42;94.09;100401.13;5015960;28;19922;-75
2022/11/09 00:21:52;;;;;;;;;;;;;;;12.43;94.55;100405.47;5016624;28;19925;-75
2022/11/09 00:24:17;;;;;;;;;;;;;;;12.42;94.84;100407.22;5016805;28;20449;-75
2022/11/09 00:26:42;;;;;;;;;;;;;;;12.42;95.17;100412.47;5013567;28;20208;-75
2022/11/09 00:29:08;;;;;;;;;;;;;;;12.42;95.42;100406.38;5016697;28;19909;-75
2022/11/09 00:31:33;;;;;;;;;;;;;;;12.43;95.12;100413.34;5016730;28;19913;-75
2022/11/09 00:33:58;;;;;;;;;;;;;;;12.40;95.00;100411.72;5016505;28;19961;-75
2022/11/09 00:36:24;;;;;;;;;;;;;;;12.40;95.16;100406.47;5016883;28;19920;-75
2022/11/09 00:38:51;;;;;;;;;;;;;;;12.38;94.91;100405.72;5020217;28;19964;-75
2022/11/09 00:41:17;;;;;;;;;;;;;;;12.38;94.79;100405.72;5020013;28;19916;-75
2022/11/09 00:43:42;;;;;;;;;;;;;;;12.36;94.15;100398.84;5020410;28;19913;-75
2022/11/09 00:46:07;;;;;;;;;;;;;;;12.35;93.75;100405.03;5020019;28;20040;-75
2022/11/09 00:48:33;;;;;;;;;;;;;;;12.35;94.40;100410.28;5020307;28;19925;-75
2022/11/09 00:50:59;;;;;;;;;;;;;;;12.33;94.06;100399.00;5020004;28;19948;-75
2022/11/09 00:53:25;;;;;;;;;;;;;;;12.32;93.98;100410.47;5019874;28;19918;-75
2022/11/09 00:55:57;;;;;;;;;;;;;;;12.29;93.34;100403.59;5020267;28;19951;-75
2022/11/09 00:58:23;;;;;;;;;;;;;;;12.30;93.37;100410.53;5019891;28;19917;-75
2022/11/09 01:00:48;;;;;;;;;;;;;;;12.29;93.49;100416.72;5019797;28;19917;-75
2022/11/09 01:03:14;;;;;;;;;;;;;;;12.27;92.31;100402.81;5019849;28;19964;-75
2022/11/09 01:05:39;;;;;;;;;;;;;;;12.26;93.01;100406.38;5019592;28;19921;-75
2022/11/09 01:08:04;;;;;;;;;;;;;;;12.25;92.81;100408.16;5017405;28;19996;-75
2022/11/09 01:10:30;;;;;;;;;;;;;;;12.25;93.29;100400.28;5019444;28;19921;-75
2022/11/09 01:12:55;;;;;;;;;;;;;;;12.25;93.27;100402.91;5019867;28;19924;-75
2022/11/09 01:15:20;;;;;;;;;;;;;;;12.25;93.15;100404.69;5019125;28;19918;-75
2022/11/09 01:17:46;;;;;;;;;;;;;;;12.25;93.81;100408.16;5019784;28;19913;-75
2022/11/09 01:20:12;;;;;;;;;;;;;;;12.25;93.73;100404.69;5019248;28;19918;-75
2022/11/09 01:22:37;;;;;;;;;;;;;;;12.25;93.89;100405.53;5019265;28;19963;-75
2022/11/09 01:25:02;;;;;;;;;;;;;;;12.24;93.93;100409.09;5018851;28;20078;-75
2022/11/09 01:27:28;;;;;;;;;;;;;;;12.25;94.06;100407.31;5019340;28;19920;-75
2022/11/09 01:29:53;;;;;;;;;;;;;;;12.24;94.38;100408.25;5019558;28;19909;-75
2022/11/09 01:32:18;;;;;;;;;;;;;;;12.23;94.34;100411.81;5019229;28;20077;-75
2022/11/09 01:34:43;;;;;;;;;;;;;;;12.22;93.83;100418.81;5019492;28;20227;-75
2022/11/09 01:37:09;;;;;;;;;;;;;;;12.22;94.22;100428.47;5019178;28;19916;-75
2022/11/09 01:39:34;;;;;;;;;;;;;;;12.20;93.89;100425.09;5019490;28;20250;-75
2022/11/09 01:41:59;;;;;;;;;;;;;;;12.20;93.42;100430.34;5018833;28;19940;-75
2022/11/09 01:44:26;;;;;;;;;;;;;;;12.19;94.15;100413.75;5029710;28;19909;-75
2022/11/09 01:46:54;;;;;;;;;;;;;;;12.19;94.15;100419.00;5019396;28;20212;-75
2022/11/09 01:49:25;;;;;;;;;;;;;;;12.19;94.56;100418.16;5018607;28;20251;-75
2022/11/09 01:51:54;;;;;;;;;;;;;;;12.21;95.06;100419.75;5019312;28;19905;-75
2022/11/09 01:54:23;;;;;;;;;;;;;;;12.21;94.89;100416.31;5018314;28;19979;-75
2022/11/09 01:56:50;;;;;;;;;;;;;;;12.20;94.67;100422.47;5018942;28;19909;-75
2022/11/09 01:59:19;;;;;;;;;;;;;;;12.19;94.86;100421.63;5018718;28;19905;-75
2022/11/09 02:01:45;;;;;;;;;;;;;;;12.21;95.18;100426.81;5018243;28;19917;-75
2022/11/09 02:04:18;;;;;;;;;;;;;;;12.20;95.10;100439.06;5017992;28;20266;-75
2022/11/09 02:06:43;;;;;;;;;;;;;;;12.21;95.41;100439.94;5018484;28;19984;-75
2022/11/09 02:09:14;;;;;;;;;;;;;;;12.21;95.56;100432.88;5018573;28;20074;-75
2022/11/09 02:11:39;;;;;;;;;;;;;;;12.21;95.36;100411.06;5018426;28;19909;-75
2022/11/09 02:14:05;;;;;;;;;;;;;;;12.20;95.55;100420.69;5017820;28;20227;-75
2022/11/09 02:16:31;;;;;;;;;;;;;;;12.20;95.26;100423.31;5018311;28;19941;-75
2022/11/09 02:18:57;;;;;;;;;;;;;;;12.20;95.33;100417.22;5018580;28;20310;-75
2022/11/09 02:21:24;;;;;;;;;;;;;;;12.19;95.20;100403.25;5017706;28;19921;-75
2022/11/09 02:23:50;;;;;;;;;;;;;;;12.18;95.23;100422.53;5018321;28;19940;-75
2022/11/09 02:26:18;;;;;;;;;;;;;;;12.18;95.06;100426.97;5017887;28;19917;-75
2022/11/09 02:28:43;;;;;;;;;;;;;;;12.17;94.15;100435.75;5019013;28;20139;-75
2022/11/09 02:31:12;;;;;;;;;;;;;;;12.16;94.64;100445.41;5018072;28;19922;-75
2022/11/09 02:34:04;;;;;;;;;;;;;;;12.17;95.38;100449.75;5017902;28;20279;-75
2022/11/09 02:36:29;;;;;;;;;;;;;;;12.16;94.79;100444.56;5013673;28;19940;-75
2022/11/09 02:38:55;;;;;;;;;;;;;;;12.16;95.08;100439.31;5018336;28;20212;-75
2022/11/09 02:41:21;;;;;;;;;;;;;;;12.15;95.06;100430.59;5017510;28;20124;-75
2022/11/09 02:43:47;;;;;;;;;;;;;;;12.15;95.28;100429.75;5017821;28;20216;-75
2022/11/09 02:46:12;;;;;;;;;;;;;;;12.16;95.78;100434.06;5018200;28;20024;-75
2022/11/09 02:48:37;;;;;;;;;;;;;;;12.16;95.60;100432.28;5017773;28;20425;-75
2022/11/09 02:51:03;;;;;;;;;;;;;;;12.16;95.72;100437.53;5016633;28;20303;-75
2022/11/09 02:53:28;;;;;;;;;;;;;;;12.16;95.64;100441.94;5016786;28;19921;-75
2022/11/09 02:55:53;;;;;;;;;;;;;;;12.16;95.82;100444.56;5017606;28;19952;-75
2022/11/09 02:58:18;;;;;;;;;;;;;;;12.15;95.95;100435.84;5017333;28;19945;-75
2022/11/09 03:00:44;;;;;;;;;;;;;;;12.16;95.95;100434.06;5017553;28;19925;-75
2022/11/09 03:03:09;;;;;;;;;;;;;;;12.15;95.93;100441.09;5017317;28;20101;-75
2022/11/09 03:05:35;;;;;;;;;;;;;;;12.16;95.92;100444.56;5017266;28;19924;-75
2022/11/09 03:08:01;;;;;;;;;;;;;;;12.16;96.25;100447.19;5014872;28;19924;-75
2022/11/09 03:10:26;;;;;;;;;;;;;;;12.14;95.39;100446.44;5017678;28;19913;-75
2022/11/09 03:12:52;;;;;;;;;;;;;;;12.14;95.93;100449.06;5017651;28;19924;-75
2022/11/09 03:15:18;;;;;;;;;;;;;;;12.14;96.03;100455.16;5017397;28;20218;-75
2022/11/09 03:17:43;;;;;;;;;;;;;;;12.14;96.28;100464.81;5017449;28;19916;-75
2022/11/09 03:20:08;;;;;;;;;;;;;;;12.14;96.20;100472.69;5017312;28;20143;-75
2022/11/09 03:22:34;;;;;;;;;;;;;;;12.13;96.07;100468.34;5017425;28;19976;-75
2022/11/09 03:24:59;;;;;;;;;;;;;;;12.14;96.05;100475.31;5016966;28;19988;-75
2022/11/09 03:27:24;;;;;;;;;;;;;;;12.12;96.31;100470.13;5017770;28;19952;-73
2022/11/09 03:29:49;;;;;;;;;;;;;;;12.12;96.32;100471.94;5017635;28;19909;-73
2022/11/09 03:32:15;;;;;;;;;;;;;;;12.12;96.61;100471.94;5016951;28;19913;-73
2022/11/09 03:34:40;;;;;;;;;;;;;;;12.12;96.58;100475.38;5017370;28;19932;-73
2022/11/09 03:37:05;;;;;;;;;;;;;;;12.12;95.85;100474.53;5017248;28;19917;-73
2022/11/09 03:39:30;;;;;;;;;;;;;;;12.10;96.08;100482.50;5016364;28;19917;-73
2022/11/09 03:41:56;;;;;;;;;;;;;;;12.08;95.87;100479.94;5016820;28;19925;-73
2022/11/09 03:44:21;;;;;;;;;;;;;;;12.10;96.27;100485.13;5016586;28;19921;-73
2022/11/09 03:46:47;;;;;;;;;;;;;;;12.09;96.06;100483.41;5030756;28;19917;-73
2022/11/09 03:49:12;;;;;;;;;;;;;;;12.04;94.58;100491.53;5015686;28;20159;-73
2022/11/09 03:51:37;;;;;;;;;;;;;;;12.04;95.10;100485.44;5017048;28;19917;-73
2022/11/09 03:54:02;;;;;;;;;;;;;;;12.05;95.70;100492.38;5017339;28;20039;-74
2022/11/09 03:56:28;;;;;;;;;;;;;;;12.03;95.52;100495.09;5017151;28;20234;-74
2022/11/09 03:58:53;;;;;;;;;;;;;;;12.03;95.63;100494.25;5016691;28;19919;-74
2022/11/09 04:01:18;;;;;;;;;;;;;;;12.02;95.55;100503.03;5016550;28;19936;-74
2022/11/09 04:03:43;;;;;;;;;;;;;;;12.01;95.59;100512.69;5016599;28;19925;-74
2022/11/09 04:06:09;;;;;;;;;;;;;;;12.02;95.71;100511.75;5016667;28;19929;-74
2022/11/09 04:08:34;;;;;;;;;;;;;;;12.01;95.54;100512.69;5016252;28;19929;-74
2022/11/09 04:10:59;;;;;;;;;;;;;;;12.02;95.82;100514.38;5016394;28;19960;-74
2022/11/09 04:13:25;;;;;;;;;;;;;;;11.99;95.00;100511.06;5017616;28;19928;-74
2022/11/09 04:15:50;;;;;;;;;;;;;;;11.99;95.64;100514.56;5020404;28;19941;-74
2022/11/09 04:18:15;;;;;;;;;;;;;;;11.99;95.84;100514.56;5019988;28;19952;-74
2022/11/09 04:20:41;;;;;;;;;;;;;;;11.98;95.28;100518.09;5020352;28;19922;-74
2022/11/09 04:23:08;;;;;;;;;;;;;;;11.99;95.75;100508.44;5020247;28;20016;-74
2022/11/09 04:25:34;;;;;;;;;;;;;;;11.98;95.83;100510.22;5020237;28;20139;-74
2022/11/09 04:28:00;;;;;;;;;;;;;;;11.98;96.25;100510.22;5020294;28;19937;-74
2022/11/09 04:30:26;;;;;;;;;;;;;;;11.99;96.13;100521.56;5020535;28;19909;-74
2022/11/09 04:32:52;;;;;;;;;;;;;;;11.98;96.51;100512.84;5020235;28;19995;-74
2022/11/09 04:35:17;;;;;;;;;;;;;;;11.99;96.36;100522.44;5019499;28;19921;-74
2022/11/09 04:37:42;;;;;;;;;;;;;;;11.99;96.45;100525.06;5019989;28;20128;-74
2022/11/09 04:40:08;;;;;;;;;;;;;;;11.96;95.64;100519.94;5019898;28;19929;-74
2022/11/09 04:42:33;;;;;;;;;;;;;;;11.96;95.80;100519.94;5019737;28;20101;-74
2022/11/09 04:44:59;;;;;;;;;;;;;;;11.95;96.16;100525.28;5019843;28;19936;-74
2022/11/09 04:47:24;;;;;;;;;;;;;;;11.94;96.57;100532.31;5019664;28;19913;-74
2022/11/09 04:49:49;;;;;;;;;;;;;;;11.93;96.60;100532.38;5020169;28;19913;-74
2022/11/09 04:52:14;;;;;;;;;;;;;;;11.92;96.57;100533.31;5019760;28;20100;-74
2022/11/09 04:54:40;;;;;;;;;;;;;;;11.90;96.86;100530.78;5019741;28;20159;-74
2022/11/09 04:57:05;;;;;;;;;;;;;;;11.90;97.00;100533.41;5019524;28;20232;-74
2022/11/09 04:59:30;;;;;;;;;;;;;;;11.90;97.14;100521.13;5019735;28;19913;-74
2022/11/09 05:01:55;;;;;;;;;;;;;;;11.91;97.28;100524.56;5019726;28;19944;-74
2022/11/09 05:04:21;;;;;;;;;;;;;;;11.90;97.04;100523.75;5019230;28;19913;-74
2022/11/09 05:06:46;;;;;;;;;;;;;;;11.90;97.29;100523.75;5019694;28;19933;-74
2022/11/09 05:09:11;;;;;;;;;;;;;;;11.89;97.14;100513.28;5018937;28;19920;-74
2022/11/09 05:11:36;;;;;;;;;;;;;;;11.88;97.01;100515.06;5019817;28;19916;-74
2022/11/09 05:14:02;;;;;;;;;;;;;;;11.89;97.29;100523.78;5019301;28;19913;-74
2022/11/09 05:16:28;;;;;;;;;;;;;;;11.89;97.24;100514.13;5019157;28;19905;-74
2022/11/09 05:18:53;;;;;;;;;;;;;;;11.88;97.36;100519.47;5019680;28;19992;-74
2022/11/09 05:21:19;;;;;;;;;;;;;;;11.88;97.30;100514.22;5019273;28;19959;-74
2022/11/09 05:23:59;;;;;;;;;;;;;;;11.88;97.44;100515.06;5018790;28;19929;-74
2022/11/09 05:26:45;;;;;;;;;;;;;;;11.87;97.43;100515.13;5019274;28;19936;-74
2022/11/09 05:29:11;;;;;;;;;;;;;;;11.88;97.30;100519.47;5018638;28;19913;-74
2022/11/09 05:31:37;;;;;;;;;;;;;;;11.87;97.10;100515.97;5019386;28;20169;-74
2022/11/09 05:34:02;;;;;;;;;;;;;;;11.88;97.21;100519.47;5019152;28;19940;-74
2022/11/09 05:36:29;;;;;;;;;;;;;;;11.87;97.34;100521.22;5019216;28;20117;-74
2022/11/09 05:38:54;;;;;;;;;;;;;;;11.87;97.16;100521.22;5019347;28;19949;-74
2022/11/09 05:41:20;;;;;;;;;;;;;;;11.86;97.14;100521.31;5018753;28;19925;-74
2022/11/09 05:43:45;;;;;;;;;;;;;;;11.85;96.51;100533.59;5019033;28;19924;-74
2022/11/09 05:46:11;;;;;;;;;;;;;;;11.83;96.66;100530.19;5018495;28;20216;-74
2022/11/09 05:48:37;;;;;;;;;;;;;;;11.82;96.87;100525.03;5018822;28;19952;-74
2022/11/09 05:51:02;;;;;;;;;;;;;;;11.81;97.00;100532.06;5018555;28;19988;-74
2022/11/09 05:53:28;;;;;;;;;;;;;;;11.79;97.05;100525.16;5018835;28;19905;-74
2022/11/09 05:55:53;;;;;;;;;;;;;;;11.78;96.65;100539.22;5019236;28;19929;-74
2022/11/09 05:58:18;;;;;;;;;;;;;;;11.77;97.18;100533.13;5018353;28;19909;-74
2022/11/09 06:00:44;;;;;;;;;;;;;;;11.77;97.26;100537.50;5018502;28;19960;-74
2022/11/09 06:03:10;;;;;;;;;;;;;;;11.77;97.52;100540.13;5018207;28;19913;-74
2022/11/09 06:05:36;;;;;;;;;;;;;;;11.77;97.27;100533.13;5018210;28;19949;-74
2022/11/09 06:08:03;;;;;;;;;;;;;;;11.76;97.56;100534.06;5018007;28;19943;-74
2022/11/09 06:10:28;;;;;;;;;;;;;;;11.76;97.57;100530.59;5017945;28;19916;-74
2022/11/09 06:12:53;;;;;;;;;;;;;;;11.75;97.41;100535.00;5018318;28;20201;-74
2022/11/09 06:15:19;;;;;;;;;;;;;;;11.74;97.64;100535.91;5018106;28;19920;-74
2022/11/09 06:17:49;;;;;;;;;;;;;;;11.75;97.40;100537.63;5018162;28;19944;-74
2022/11/09 06:20:14;;;;;;;;;;;;;;;11.75;97.63;100532.38;5018480;28;19941;-74
2022/11/09 06:22:40;;;;;;;;;;;;;;;11.74;97.58;100532.44;5011228;28;19926;-74
2022/11/09 06:25:05;;;;;;;;;;;;;;;11.74;97.59;100542.94;4999908;28;19956;-74
2022/11/09 06:27:30;;;;;;;;;;;;;;;11.74;97.35;100541.16;5005230;28;19917;-74
2022/11/09 06:29:56;;;;;;;;;;;;;;;11.74;97.58;100537.69;5017547;28;19948;-74
2022/11/09 06:32:21;;;;;;;;;;;;;;;11.74;97.35;100540.31;5018475;28;20116;-74
2022/11/09 06:34:48;;;;;;;;;;;;;;;11.73;97.30;100539.44;5017316;28;20105;-74
2022/11/09 06:37:16;;;;;;;;;;;;;;;11.72;97.30;100543.00;5017419;28;19917;-74
2022/11/09 06:39:41;;;;;;;;;;;;;;;11.68;96.77;100547.56;5017792;28;19963;-74
2022/11/09 06:42:07;;;;;;;;;;;;;;;11.68;97.20;100552.81;5017687;28;20208;-74
2022/11/09 06:44:32;;;;;;;;;;;;;;;11.66;97.23;100554.66;5019811;28;20190;-74
2022/11/09 06:46:57;;;;;;;;;;;;;;;11.67;97.32;100545.00;5020927;28;19913;-74
2022/11/09 06:49:22;;;;;;;;;;;;;;;11.66;97.49;100557.28;5037178;28;20235;-74
2022/11/09 06:51:47;;;;;;;;;;;;;;;11.67;97.61;100553.72;5037488;28;19912;-74
2022/11/09 06:54:13;;;;;;;;;;;;;;;11.66;97.60;100553.78;5037108;28;19956;-74
2022/11/09 06:56:38;;;;;;;;;;;;;;;11.66;97.62;100553.78;5037191;28;19924;-74
2022/11/09 06:59:03;;;;;;;;;;;;;;;11.65;96.93;100557.34;5036917;28;20029;-74
2022/11/09 07:01:28;;;;;;;;;;;;;;;11.64;97.35;100561.75;5037063;28;20227;-74
2022/11/09 07:03:54;;;;;;;;;;;;;;;11.65;97.89;100552.13;5037515;28;19921;-74
2022/11/09 07:06:19;;;;;;;;;;;;;;;11.65;97.91;100552.13;5020560;28;19917;-74
2022/11/09 07:08:44;;;;;;;;;;;;;;;11.65;97.91;100550.31;5015958;28;20000;-74
2022/11/09 07:11:11;;;;;;;;;;;;;;;11.65;97.78;100542.47;5021978;28;19956;-74
2022/11/09 07:13:36;;;;;;;;;;;;;;;11.66;97.74;100545.91;5036360;28;19927;-74
2022/11/09 07:16:02;;;;;;;;;;;;;;;11.66;97.72;100548.53;5013948;28;19974;-74
2022/11/09 07:18:27;;;;;;;;;;;;;;;11.65;97.97;100558.19;5022265;28;20147;-74
2022/11/09 07:20:53;;;;;;;;;;;;;;;11.63;97.60;100552.19;5019053;28;19917;-74
2022/11/09 07:23:18;;;;;;;;;;;;;;;11.63;97.68;100554.81;5027048;28;19928;-74
2022/11/09 07:25:43;;;;;;;;;;;;;;;11.62;97.97;100555.72;5026089;28;20252;-74
2022/11/09 07:28:09;;;;;;;;;;;;;;;11.61;97.98;100556.66;5036172;28;19904;-74
2022/11/09 07:30:37;;;;;;;;;;;;;;;11.60;97.81;100564.59;5028870;28;19910;-74
2022/11/09 07:33:03;;;;;;;;;;;;;;;11.59;98.05;100569.00;5017056;28;19909;-74
2022/11/09 07:35:29;;;;;;;;;;;;;;;11.60;98.17;100567.22;5016713;28;20231;-74
2022/11/09 07:37:57;;;;;;;;;;;;;;;11.59;98.10;100579.50;5014292;28;19967;-74
2022/11/09 07:40:23;;;;;;;;;;;;;;;11.59;98.25;100571.63;5015483;28;19915;-74
2022/11/09 07:42:48;;;;;;;;;;;;;;;11.58;98.29;100572.53;5009226;28;20041;-74
2022/11/09 07:45:13;;;;;;;;;;;;;;;11.58;97.96;100576.94;5014722;28;20123;-74
2022/11/09 07:47:39;;;;;;;;;;;;;;;11.59;98.37;100586.50;5019948;28;19948;-74
2022/11/09 07:50:04;;;;;;;;;;;;;;;11.59;98.25;100582.13;5020174;28;20191;-74
2022/11/09 07:52:29;;;;;;;;;;;;;;;11.59;98.26;100587.38;5020609;28;19944;-74
2022/11/09 07:54:54;;;;;;;;;;;;;;;11.57;98.07;100594.47;5020618;28;19909;-74
2022/11/09 07:57:20;;;;;;;;;;;;;;;11.55;98.03;100598.06;5020376;28;20075;-74
2022/11/09 07:59:45;;;;;;;;;;;;;;;11.55;97.90;100593.69;5015314;28;19910;-74
2022/11/09 08:02:11;;;;;;;;;;;;;;;11.55;98.41;100609.44;5016304;28;20267;-74
2022/11/09 08:04:36;;;;;;;;;;;;;;;11.55;98.19;100604.19;5015082;28;20354;-74
2022/11/09 08:07:01;;;;;;;;;;;;;;;11.56;98.26;100613.72;5017710;28;19917;-74
2022/11/09 08:09:27;;;;;;;;;;;;;;;11.57;98.82;100606.69;5013766;28;19960;-74
2022/11/09 08:11:52;;;;;;;;;;;;;;;11.59;98.69;100610.09;5015556;28;19917;-74
2022/11/09 08:14:17;;;;;;;;;;;;;;;11.60;98.77;100609.19;5017681;28;20200;-74
2022/11/09 08:16:42;;;;;;;;;;;;;;;11.60;98.40;100615.28;5016160;28;19992;-74
2022/11/09 08:19:09;;;;;;;;;;;;;;;11.61;98.39;100605.66;5015324;28;20163;-74
2022/11/09 08:21:35;;;;;;;;;;;;;;;11.61;98.57;100624.84;5015456;28;19928;-74
2022/11/09 08:24:00;;;;;;;;;;;;;;;11.62;98.59;100618.66;5017308;28;19921;-74
2022/11/09 08:26:25;;;;;;;;;;;;;;;11.63;98.56;100622.16;5016964;28;19921;-74
2022/11/09 08:28:50;;;;;;;;;;;;;;;11.63;98.28;100633.50;5015982;28;19992;-74
2022/11/09 08:31:16;;;;;;;;;;;;;;;11.64;98.42;100632.59;5012779;28;19940;-74
2022/11/09 08:33:41;;;;;;;;;;;;;;;11.64;98.38;100629.97;5016433;28;20005;-74
2022/11/09 08:36:10;;;;;;;;;;;;;;;11.64;97.97;100636.97;5010869;28;20226;-74
2022/11/09 08:38:35;;;;;;;;;;;;;;;11.63;98.19;100643.97;5013741;28;19958;-74
2022/11/09 08:41:01;;;;;;;;;;;;;;;11.64;98.30;100639.56;5015985;28;19926;-74
2022/11/09 08:43:26;;;;;;;;;;;;;;;11.64;98.49;100644.81;5010553;28;19960;-74
2022/11/09 08:45:52;;;;;;;;;;;;;;;11.65;98.17;100633.41;5011119;28;19924;-74
2022/11/09 08:48:17;;;;;;;;;;;;;;;11.65;98.48;100636.03;5015296;28;19928;-74
2022/11/09 08:50:42;;;;;;;;;;;;;;;11.65;98.41;100641.28;5017038;28;19921;-74
2022/11/09 08:53:08;;;;;;;;;;;;;;;11.63;98.06;100643.97;5010085;28;19922;-74
2022/11/09 08:55:33;;;;;;;;;;;;;;;11.64;97.88;100648.31;5017333;28;19917;-74
2022/11/09 08:57:59;;;;;;;;;;;;;;;11.65;98.20;100655.25;5010413;28;19951;-74
2022/11/09 09:00:25;;;;;;;;;;;;;;;11.66;98.64;100651.72;5012136;28;20024;-74
2022/11/09 09:02:50;;;;;;;;;;;;;;;11.65;98.59;100647.38;5016052;28;19909;-74
2022/11/09 09:05:16;;;;;;;;;;;;;;;11.67;98.56;100650.78;5027891;28;19921;-74
2022/11/09 09:07:41;;;;;;;;;;;;;;;11.68;98.23;100646.41;5018291;28;20231;-74
2022/11/09 09:10:07;;;;;;;;;;;;;;;11.67;98.45;100648.16;5015229;28;20204;-74
2022/11/09 09:12:32;;;;;;;;;;;;;;;11.68;98.40;100649.03;5016514;28;19913;-74
2022/11/09 09:14:58;;;;;;;;;;;;;;;11.68;98.21;100644.63;5017375;28;19915;-74
2022/11/09 09:17:23;;;;;;;;;;;;;;;11.68;98.58;100636.75;5018131;28;19937;-74
2022/11/09 09:19:48;;;;;;;;;;;;;;;11.68;98.52;100647.25;5017468;28;19985;-74
2022/11/09 09:22:14;;;;;;;;;;;;;;;11.69;98.55;100648.94;5017298;28;20152;-74
2022/11/09 09:24:39;;;;;;;;;;;;;;;11.69;98.33;100641.06;5026543;28;19921;-74
2022/11/09 09:27:04;;;;;;;;;;;;;;;11.70;98.20;100652.41;5033930;28;20159;-74
2022/11/09 09:29:29;;;;;;;;;;;;;;;11.69;98.16;100651.53;5017248;28;19955;-74
2022/11/09 09:31:55;;;;;;;;;;;;;;;11.70;97.92;100649.78;5017030;28;19986;-74
2022/11/09 09:34:20;;;;;;;;;;;;;;;11.71;98.16;100651.47;5016811;28;20296;-74
2022/11/09 09:36:45;;;;;;;;;;;;;;;11.70;98.37;100653.25;5017176;28;19924;-74
2022/11/09 09:39:11;;;;;;;;;;;;;;;11.71;98.33;100651.47;5013852;28;19956;-74
2022/11/09 09:41:36;;;;;;;;;;;;;;;11.72;98.40;100661.06;5016585;28;20250;-74
2022/11/09 09:44:28;;;;;;;;;;;;;;;11.72;98.21;100656.66;5014727;28;20135;-74
2022/11/09 09:47:12;;;;;;;;;;;;;;;11.71;96.84;100659.34;5012288;28;19940;-74
2022/11/09 09:49:42;;;;;;;;;;;;;;;11.72;97.31;100663.69;5025746;28;19921;-74
2022/11/09 09:52:10;;;;;;;;;;;;;;;11.72;97.46;100669.78;5024003;28;19913;-74
2022/11/09 09:54:39;;;;;;;;;;;;;;;11.75;97.50;100675.78;5024349;28;20430;-74
2022/11/09 09:57:11;;;;;;;;;;;;;;;11.75;97.36;100681.91;5014700;28;19984;-74
2022/11/09 09:59:41;;;;;;;;;;;;;;;11.76;97.39;100683.59;5016023;28;20013;-74
2022/11/09 10:02:18;;;;;;;;;;;;;;;11.77;97.22;100681.81;5013320;28;19959;-74
2022/11/09 10:04:44;;;;;;;;;;;;;;;11.77;96.63;100716.78;5014435;28;19960;-74
2022/11/09 10:07:17;;;;;;;;;;;;;;;11.77;95.91;100703.66;5013957;28;19930;-74
2022/11/09 10:09:45;;;;;;;;;;;;;;;11.76;95.30;100709.00;5011618;28;19935;-74
2022/11/09 10:12:16;;;;;;;;;;;;;;;11.77;95.63;100710.66;5014278;28;20150;-74
2022/11/09 10:14:54;;;;;;;;;;;;;;;11.76;95.74;100709.81;5020233;28;19917;-74
2022/11/09 10:17:31;;;;;;;;;;;;;;;11.77;96.27;100710.66;5006397;28;19951;-74
2022/11/09 10:20:16;;;;;;;;;;;;;;;11.77;96.77;100708.91;5012665;28;19917;-74
2022/11/09 10:22:57;;;;;;;;;;;;;;;11.77;96.93;100710.66;5011306;28;20210;-74
2022/11/09 10:25:25;;;;;;;;;;;;;;;11.77;96.94;100697.56;5012719;28;19909;-74
2022/11/09 10:28:07;;;;;;;;;;;;;;;11.77;97.38;100708.91;5014161;28;19944;-74
2022/11/09 10:30:33;;;;;;;;;;;;;;;11.77;97.51;100708.91;5010484;28;19917;-74
2022/11/09 10:33:08;;;;;;;;;;;;;;;11.76;97.75;100703.75;5011587;28;19917;-74
2022/11/09 10:35:36;;;;;;;;;;;;;;;11.77;98.04;100708.03;5016217;28;19924;-74
2022/11/09 10:38:01;;;;;;;;;;;;;;;11.77;98.17;100703.66;5014925;28;20416;-74
2022/11/09 10:40:49;;;;;;;;;;;;;;;11.78;98.03;100694.84;5015126;28;19918;-74
2022/11/09 10:43:14;;;;;;;;;;;;;;;11.77;98.20;100693.19;5017600;28;19948;-74
2022/11/09 10:45:41;;;;;;;;;;;;;;;11.79;97.98;100691.31;5017759;28;19921;-74
2022/11/09 10:48:07;;;;;;;;;;;;;;;11.81;98.29;100710.47;5013694;28;20179;-74
2022/11/09 10:50:36;;;;;;;;;;;;;;;11.82;98.03;100698.19;5013094;28;19925;-74
2022/11/09 10:53:07;;;;;;;;;;;;;;;11.83;97.61;100697.28;5017267;28;20123;-74
2022/11/09 10:55:35;;;;;;;;;;;;;;;11.83;97.55;100681.53;5018469;28;19932;-74
2022/11/09 10:58:14;;;;;;;;;;;;;;;11.83;96.66;100692.88;5015278;28;19913;-74
2022/11/09 11:00:55;;;;;;;;;;;;;;;11.83;96.14;100686.78;5010790;28;20094;-74
2022/11/09 11:03:23;;;;;;;;;;;;;;;11.82;96.15;100679.81;5014585;28;19939;-74
2022/11/09 11:05:55;;;;;;;;;;;;;;;11.82;95.97;100674.56;5015535;28;19917;-74
2022/11/09 11:08:25;;;;;;;;;;;;;;;11.81;95.20;100699.13;5014714;28;19948;-74
2022/11/09 11:10:51;;;;;;;;;;;;;;;11.80;94.50;100700.03;5015085;28;19914;-74
2022/11/09 11:13:20;;;;;;;;;;;;;;;11.78;93.83;100699.25;5015271;28;19966;-74
2022/11/09 11:15:46;;;;;;;;;;;;;;;11.78;94.67;100704.50;5015327;28;19948;-74
2022/11/09 11:18:17;;;;;;;;;;;;;;;11.77;94.73;100702.78;5016309;28;19924;-74
2022/11/09 11:20:42;;;;;;;;;;;;;;;11.76;94.44;100706.38;5016126;28;19914;-74
2022/11/09 11:23:18;;;;;;;;;;;;;;;11.75;94.76;100720.38;5014588;28;19928;-74
2022/11/09 11:25:52;;;;;;;;;;;;;;;11.74;94.73;100719.56;5009729;28;19913;-74
2022/11/09 11:28:23;;;;;;;;;;;;;;;11.74;94.49;100729.19;5011397;28;20143;-74
2022/11/09 11:30:48;;;;;;;;;;;;;;;11.74;94.89;100727.41;5016236;28;20092;-74
2022/11/09 11:33:15;;;;;;;;;;;;;;;11.74;95.17;100730.03;5009297;28;19924;-74
2022/11/09 11:35:54;;;;;;;;;;;;;;;11.75;95.38;100723.88;5016145;28;20207;-74
2022/11/09 11:38:30;;;;;;;;;;;;;;;11.74;94.76;100730.03;5016274;28;20110;-74
2022/11/09 11:41:03;;;;;;;;;;;;;;;11.76;94.99;100733.44;5014304;28;19928;-74
2022/11/09 11:43:41;;;;;;;;;;;;;;;11.77;95.00;100732.53;5016378;28;19956;-74
2022/11/09 11:46:29;;;;;;;;;;;;;;;11.79;95.27;100720.19;5012646;28;21117;-74
2022/11/09 11:49:13;;;;;;;;;;;;;;;11.79;95.30;100733.31;5020368;28;19932;-74
2022/11/09 11:52:16;;;;;;;;;;;;;;;11.78;94.57;100731.59;5011989;28;20218;-74
2022/11/09 11:54:54;;;;;;;;;;;;;;;11.79;94.62;100727.19;4938057;29;19925;-74
2022/11/09 11:57:19;;;;;;;;;;;;;;;11.80;94.90;100724.50;4933839;29;20253;-74
2022/11/09 11:59:53;;;;;;;;;;;;;;;11.80;94.26;100729.75;4978103;28;19917;-74
2022/11/09 12:02:26;;;;;;;;;;;;;;;11.81;94.85;100726.22;5011443;28;20163;-74
2022/11/09 12:05:10;;;;;;;;;;;;;;;11.83;95.59;100729.59;5010422;28;20165;-74
2022/11/09 12:07:55;;;;;;;;;;;;;;;11.84;96.00;100728.69;5013799;28;19921;-74
2022/11/09 12:10:30;;;;;;;;;;;;;;;11.86;96.14;100718.09;5012079;28;19984;-75
2022/11/09 12:13:14;;;;;;;;;;;;;;;11.89;96.53;100712.72;5017850;28;19916;-74
2022/11/09 12:15:50;;;;;;;;;;;;;;;11.91;96.40;100731.88;5024422;28;20232;-74
2022/11/09 12:18:34;;;;;;;;;;;;;;;11.91;95.91;100716.13;5017036;28;19913;-74
2022/11/09 12:21:16;;;;;;;;;;;;;;;11.93;95.74;100723.94;5006821;28;19921;-74
2022/11/09 12:23:47;;;;;;;;;;;;;;;11.94;95.65;100721.25;5013290;28;19988;-74
2022/11/09 12:26:18;;;;;;;;;;;;;;;11.94;94.66;100726.50;5015061;28;20247;-74
2022/11/09 12:29:11;;;;;;;;;;;;;;;11.95;94.48;100724.72;5013341;28;20216;-74
2022/11/09 12:31:43;;;;;;;;;;;;;;;11.95;94.77;100728.22;5013012;28;19932;-74
2022/11/09 12:34:20;;;;;;;;;;;;;;;11.96;94.28;100724.66;5015136;28;19917;-74
2022/11/09 12:36:52;;;;;;;;;;;;;;;11.98;93.98;100732.44;5017709;28;19982;-74